createdAt,value
2019-03-10T00:01:48.986Z,76.60
2019-03-10T00:04:17.465Z,76.40
2019-03-10T00:06:45.942Z,76.30
2019-03-10T00:09:14.205Z,76.20
2019-03-10T00:11:42.410Z,76.50
2019-03-10T00:14:10.637Z,76.50
2019-03-10T00:16:38.858Z,76.30
2019-03-10T00:19:07.126Z,76.50
2019-03-10T00:21:35.339Z,76.60
2019-03-10T00:24:03.659Z,76.50
2019-03-10T00:26:31.884Z,76.60
2019-03-10T00:29:00.120Z,76.30
2019-03-10T00:31:28.569Z,76.20
2019-03-10T00:33:56.806Z,76.20
2019-03-10T00:36:25.017Z,75.80
2019-03-10T00:39:11.117Z,76.00
2019-03-10T00:41:42.585Z,76.00
2019-03-10T00:44:30.255Z,75.70
2019-03-10T00:47:01.751Z,75.30
2019-03-10T00:49:41.929Z,75.40
2019-03-10T00:52:16.290Z,75.60
2019-03-10T00:54:44.524Z,75.30
2019-03-10T00:57:12.751Z,75.60
2019-03-10T00:59:40.984Z,75.40
2019-03-10T01:02:09.227Z,75.50
2019-03-10T01:04:37.473Z,75.70
2019-03-10T01:07:05.681Z,75.90
2019-03-10T01:09:33.917Z,75.90
2019-03-10T01:12:02.228Z,75.60
2019-03-10T01:14:30.449Z,75.90
2019-03-10T01:16:58.681Z,75.90
2019-03-10T01:19:26.895Z,76.10
2019-03-10T01:21:55.146Z,75.80
2019-03-10T01:24:23.380Z,75.90
2019-03-10T01:26:51.829Z,76.10
2019-03-10T01:29:20.078Z,76.30
2019-03-10T01:32:11.670Z,76.50
2019-03-10T01:35:00.412Z,76.60
2019-03-10T01:37:28.695Z,76.50
2019-03-10T01:39:56.937Z,76.50
2019-03-10T01:42:25.157Z,76.90
2019-03-10T01:44:53.371Z,76.40
2019-03-10T01:47:21.834Z,76.50
2019-03-10T01:49:50.070Z,76.70
2019-03-10T01:52:18.341Z,76.80
2019-03-10T01:54:46.603Z,76.70
2019-03-10T01:57:14.825Z,76.90
2019-03-10T01:59:43.077Z,77.10
2019-03-10T02:02:11.282Z,77.00
2019-03-10T02:04:39.540Z,77.10
2019-03-10T02:07:08.049Z,77.10
2019-03-10T02:09:36.260Z,77.50
2019-03-10T02:12:04.734Z,77.70
2019-03-10T02:14:32.994Z,78.00
2019-03-10T02:17:01.267Z,78.20
2019-03-10T02:19:29.490Z,78.10
2019-03-10T02:21:57.734Z,78.40
2019-03-10T02:24:25.954Z,78.50
2019-03-10T02:26:54.176Z,78.50
2019-03-10T02:29:22.382Z,78.60
2019-03-10T02:31:50.627Z,78.40
2019-03-10T02:34:18.849Z,78.40
2019-03-10T02:36:47.099Z,78.50
2019-03-10T02:39:15.311Z,78.30
2019-03-10T02:41:43.572Z,78.10
2019-03-10T02:44:11.782Z,78.30
2019-03-10T02:46:40.034Z,78.20
2019-03-10T02:49:08.258Z,78.30
2019-03-10T02:51:36.502Z,78.50
2019-03-10T02:54:04.726Z,78.50
2019-03-10T02:56:32.953Z,78.20
2019-03-10T02:59:01.178Z,78.40
2019-03-10T03:01:29.428Z,78.30
2019-03-10T03:03:57.655Z,77.30
2019-03-10T03:06:25.875Z,76.60
2019-03-10T03:08:54.330Z,76.00
2019-03-10T03:11:22.562Z,75.70
2019-03-10T03:13:51.016Z,75.40
2019-03-10T03:16:19.246Z,75.00
2019-03-10T03:18:47.497Z,74.10
2019-03-10T03:21:15.788Z,74.10
2019-03-10T03:23:44.014Z,74.40
2019-03-10T03:26:12.270Z,73.50
2019-03-10T03:28:40.479Z,75.60
2019-03-10T03:31:08.702Z,75.90
2019-03-10T03:33:36.963Z,77.20
2019-03-10T03:36:13.855Z,77.80
2019-03-10T03:38:57.144Z,79.50
2019-03-10T03:41:26.219Z,80.90
2019-03-10T03:43:54.473Z,82.10
2019-03-10T03:46:22.976Z,83.40
2019-03-10T03:48:51.230Z,83.80
2019-03-10T03:51:19.451Z,84.40
2019-03-10T03:53:47.672Z,85.70
2019-03-10T03:56:15.925Z,86.00
2019-03-10T03:58:44.134Z,86.90
2019-03-10T04:01:16.695Z,87.00
2019-03-10T04:03:44.963Z,88.00
2019-03-10T04:06:13.183Z,89.80
2019-03-10T04:08:41.560Z,90.60
2019-03-10T04:11:09.790Z,90.60
2019-03-10T04:13:38.090Z,90.60
2019-03-10T04:16:06.327Z,91.10
2019-03-10T04:18:34.557Z,91.30
2019-03-10T04:21:02.775Z,91.30
2019-03-10T04:23:30.990Z,91.60
2019-03-10T04:25:59.209Z,91.90
2019-03-10T04:28:27.454Z,91.70
2019-03-10T04:30:55.990Z,91.90
2019-03-10T04:33:24.260Z,91.80
2019-03-10T04:35:52.454Z,91.90
2019-03-10T04:38:20.700Z,92.10
2019-03-10T04:40:48.914Z,92.10
2019-03-10T04:43:17.386Z,92.40
2019-03-10T04:45:45.610Z,92.50
2019-03-10T04:48:13.852Z,92.70
2019-03-10T04:50:42.063Z,92.80
2019-03-10T04:53:10.290Z,92.80
2019-03-10T04:55:45.886Z,92.80
2019-03-10T04:58:15.930Z,92.80
2019-03-10T05:00:45.786Z,93.00
2019-03-10T05:03:14.037Z,93.00
2019-03-10T05:05:42.252Z,92.90
2019-03-10T05:08:10.482Z,92.80
2019-03-10T05:10:38.711Z,93.20
2019-03-10T05:13:06.933Z,92.20
2019-03-10T05:15:35.161Z,92.60
2019-03-10T05:18:03.395Z,92.20
2019-03-10T05:20:31.626Z,91.90
2019-03-10T05:23:22.181Z,91.70
2019-03-10T05:25:50.424Z,91.90
2019-03-10T05:28:18.642Z,91.90
2019-03-10T05:30:46.862Z,91.90
2019-03-10T05:33:15.094Z,92.20
2019-03-10T05:35:43.351Z,92.30
2019-03-10T05:38:11.824Z,92.30
2019-03-10T05:40:40.322Z,92.60
2019-03-10T05:43:08.561Z,92.70
2019-03-10T05:45:36.800Z,92.90
2019-03-10T05:48:05.021Z,92.70
2019-03-10T05:50:33.485Z,92.70
2019-03-10T05:53:01.696Z,92.90
2019-03-10T05:55:29.942Z,93.10
2019-03-10T05:57:58.159Z,93.30
2019-03-10T06:00:26.400Z,93.50
2019-03-10T06:02:54.995Z,93.60
2019-03-10T06:05:23.473Z,93.80
2019-03-10T06:07:51.684Z,93.80
2019-03-10T06:10:19.918Z,94.00
2019-03-10T06:12:48.144Z,94.20
2019-03-10T06:15:16.622Z,94.50
2019-03-10T06:17:44.895Z,94.70
2019-03-10T06:20:13.142Z,94.40
2019-03-10T06:22:41.337Z,94.30
2019-03-10T06:25:09.578Z,94.40
2019-03-10T06:27:38.072Z,94.70
2019-03-10T06:30:09.563Z,94.60
2019-03-10T06:32:38.036Z,94.70
2019-03-10T06:35:06.640Z,94.80
2019-03-10T06:37:34.857Z,94.90
2019-03-10T06:40:03.090Z,95.00
2019-03-10T06:42:31.306Z,94.90
2019-03-10T06:44:59.605Z,94.90
2019-03-10T06:47:27.822Z,94.90
2019-03-10T06:49:56.061Z,95.00
2019-03-10T06:52:24.300Z,95.10
2019-03-10T06:54:52.541Z,95.10
2019-03-10T06:57:20.865Z,95.00
2019-03-10T06:59:50.079Z,95.00
2019-03-10T07:02:18.747Z,95.10
2019-03-10T07:04:47.217Z,95.20
2019-03-10T07:07:15.506Z,95.30
2019-03-10T07:09:43.724Z,95.40
2019-03-10T07:12:11.961Z,95.50
2019-03-10T07:14:40.202Z,95.60
2019-03-10T07:17:08.429Z,95.60
2019-03-10T07:19:36.658Z,95.80
2019-03-10T07:22:04.882Z,95.80
2019-03-10T07:24:33.381Z,95.80
2019-03-10T07:27:02.330Z,95.90
2019-03-10T07:29:32.485Z,96.00
2019-03-10T07:32:02.352Z,95.90
2019-03-10T07:34:40.993Z,95.90
2019-03-10T07:37:11.102Z,95.70
2019-03-10T07:39:46.698Z,95.60
2019-03-10T07:42:16.579Z,95.60
2019-03-10T07:44:52.588Z,95.70
2019-03-10T07:47:28.281Z,95.90
2019-03-10T07:50:04.186Z,95.90
2019-03-10T07:52:34.092Z,95.90
2019-03-10T07:55:04.013Z,96.00
2019-03-10T07:57:37.101Z,96.00
2019-03-10T08:00:21.647Z,95.80
2019-03-10T08:02:51.517Z,95.70
2019-03-10T08:05:21.374Z,95.80
2019-03-10T08:07:54.207Z,95.80
2019-03-10T08:10:24.110Z,95.60
2019-03-10T08:12:54.002Z,95.70
2019-03-10T08:15:23.875Z,95.70
2019-03-10T08:17:53.745Z,95.60
2019-03-10T08:20:26.578Z,94.80
2019-03-10T08:23:02.247Z,93.90
2019-03-10T08:25:44.433Z,93.20
2019-03-10T08:28:21.352Z,93.30
2019-03-10T08:30:57.094Z,92.50
2019-03-10T08:33:26.976Z,91.40
2019-03-10T08:36:02.578Z,90.50
2019-03-10T08:38:41.160Z,91.40
2019-03-10T08:41:17.477Z,92.40
2019-03-10T08:43:47.365Z,93.00
2019-03-10T08:46:23.250Z,93.00
2019-03-10T08:49:01.962Z,92.80
2019-03-10T08:51:31.955Z,91.80
2019-03-10T08:54:02.794Z,91.30
2019-03-10T08:56:35.554Z,91.20
2019-03-10T08:59:17.169Z,91.10
2019-03-10T09:01:49.439Z,90.50
2019-03-10T09:04:34.172Z,88.80
2019-03-10T09:07:19.965Z,88.20
2019-03-10T09:09:58.799Z,88.20
2019-03-10T09:12:28.676Z,87.20
2019-03-10T09:15:07.508Z,86.40
2019-03-10T09:17:46.088Z,86.10
2019-03-10T09:20:15.955Z,85.00
2019-03-10T09:23:00.505Z,85.30
2019-03-10T09:25:45.860Z,84.90
2019-03-10T09:28:18.683Z,85.00
2019-03-10T09:30:57.414Z,85.90
2019-03-10T09:33:27.302Z,85.90
2019-03-10T09:35:59.889Z,86.30
2019-03-10T09:38:32.470Z,87.60
2019-03-10T09:41:18.510Z,88.90
2019-03-10T09:44:04.826Z,89.20
2019-03-10T09:46:34.686Z,89.20
2019-03-10T09:49:13.295Z,88.50
2019-03-10T09:51:49.131Z,89.10
2019-03-10T09:54:31.084Z,89.10
2019-03-10T09:57:16.049Z,90.30
2019-03-10T09:59:48.699Z,89.00
2019-03-10T10:02:21.422Z,87.60
2019-03-10T10:05:00.415Z,87.00
2019-03-10T10:07:39.365Z,86.40
2019-03-10T10:10:24.938Z,86.00
2019-03-10T10:12:57.634Z,85.40
2019-03-10T10:15:33.149Z,83.20
2019-03-10T10:18:08.910Z,81.00
2019-03-10T10:20:44.485Z,79.60
2019-03-10T10:23:32.164Z,78.00
2019-03-10T10:26:04.658Z,76.80
2019-03-10T10:28:37.097Z,77.90
2019-03-10T10:31:15.863Z,79.30
2019-03-10T10:33:57.590Z,78.60
2019-03-10T10:36:27.518Z,80.40
2019-03-10T10:39:13.695Z,80.10
2019-03-10T10:41:43.651Z,82.70
2019-03-10T10:44:19.411Z,81.80
2019-03-10T10:46:55.404Z,83.30
2019-03-10T10:49:31.424Z,84.70
2019-03-10T10:52:17.469Z,85.20
2019-03-10T10:54:50.314Z,86.30
2019-03-10T10:57:25.998Z,86.20
2019-03-10T10:59:55.906Z,85.80
2019-03-10T11:02:28.920Z,85.70
2019-03-10T11:04:58.795Z,81.30
2019-03-10T11:07:40.648Z,76.90
2019-03-10T11:10:12.436Z,74.20
2019-03-10T11:12:50.603Z,74.60
2019-03-10T11:15:23.491Z,73.20
2019-03-10T11:18:09.419Z,71.10
2019-03-10T11:20:33.771Z,72.20
2019-03-10T11:23:06.705Z,68.60
2019-03-10T11:25:39.321Z,68.70
2019-03-10T11:28:25.239Z,68.60
2019-03-10T11:31:13.853Z,67.40
2019-03-10T11:33:43.045Z,66.70
2019-03-10T11:36:24.768Z,65.80
2019-03-10T11:39:06.476Z,65.10
2019-03-10T11:41:52.471Z,65.70
2019-03-10T11:44:22.351Z,68.40
2019-03-10T11:47:01.313Z,70.10
2019-03-10T11:49:31.178Z,70.40
2019-03-10T11:52:10.030Z,71.30
2019-03-10T11:54:39.892Z,70.50
2019-03-10T11:57:25.626Z,67.80
2019-03-10T11:59:55.501Z,65.20
2019-03-10T12:02:28.345Z,65.20
2019-03-10T12:04:58.366Z,65.90
2019-03-10T12:07:34.018Z,66.40
2019-03-10T12:10:02.267Z,68.50
2019-03-10T12:12:30.485Z,67.40
2019-03-10T12:14:58.725Z,66.60
2019-03-10T12:17:27.184Z,65.30
2019-03-10T12:19:55.449Z,65.50
2019-03-10T12:22:23.705Z,66.10
2019-03-10T12:24:51.959Z,67.40
2019-03-10T12:27:20.180Z,68.10
2019-03-10T12:29:48.556Z,68.10
2019-03-10T12:32:16.860Z,70.30
2019-03-10T12:34:45.144Z,71.30
2019-03-10T12:37:13.410Z,71.90
2019-03-10T12:39:41.648Z,72.50
2019-03-10T12:42:09.878Z,71.70
2019-03-10T12:44:38.155Z,70.90
2019-03-10T12:47:06.483Z,72.00
2019-03-10T12:49:34.747Z,72.80
2019-03-10T12:52:02.983Z,72.40
2019-03-10T12:54:31.218Z,72.40
2019-03-10T12:56:59.529Z,72.90
2019-03-10T12:59:27.837Z,73.30
2019-03-10T13:01:56.170Z,72.60
2019-03-10T13:04:24.423Z,71.00
2019-03-10T13:06:52.716Z,68.80
2019-03-10T13:09:20.948Z,66.80
2019-03-10T13:11:49.213Z,64.80
2019-03-10T13:14:17.503Z,63.60
2019-03-10T13:16:45.746Z,62.90
2019-03-10T13:19:14.100Z,63.30
2019-03-10T13:21:42.508Z,62.50
2019-03-10T13:24:10.803Z,61.80
2019-03-10T13:26:41.460Z,60.20
2019-03-10T13:29:09.008Z,60.10
2019-03-10T13:31:37.383Z,59.60
2019-03-10T13:34:05.676Z,58.80
2019-03-10T13:36:33.956Z,57.40
2019-03-10T13:39:02.190Z,56.30
2019-03-10T13:41:30.426Z,55.90
2019-03-10T13:43:58.666Z,56.40
2019-03-10T13:46:27.114Z,56.30
2019-03-10T13:48:55.344Z,58.00
2019-03-10T13:51:23.816Z,58.30
2019-03-10T13:53:52.316Z,59.60
2019-03-10T13:56:20.530Z,60.00
2019-03-10T13:58:48.832Z,58.20
2019-03-10T14:01:17.093Z,58.10
2019-03-10T14:03:45.315Z,55.70
2019-03-10T14:06:13.529Z,54.70
2019-03-10T14:08:41.834Z,51.80
2019-03-10T14:11:10.104Z,49.00
2019-03-10T14:13:38.778Z,48.00
2019-03-10T14:16:07.057Z,48.30
2019-03-10T14:18:35.279Z,48.00
2019-03-10T14:21:03.534Z,47.60
2019-03-10T14:23:31.781Z,47.10
2019-03-10T14:26:00.012Z,47.10
2019-03-10T14:28:28.309Z,47.60
2019-03-10T14:30:56.544Z,48.30
2019-03-10T14:33:24.842Z,47.70
2019-03-10T14:35:53.091Z,47.90
2019-03-10T14:38:21.392Z,47.40
2019-03-10T14:40:49.616Z,47.20
2019-03-10T14:43:17.973Z,48.10
2019-03-10T14:45:46.255Z,49.00
2019-03-10T14:48:14.536Z,49.60
2019-03-10T14:50:42.852Z,49.80
2019-03-10T14:53:11.216Z,50.40
2019-03-10T14:55:39.466Z,50.80
2019-03-10T14:58:07.699Z,50.20
2019-03-10T15:00:35.936Z,50.30
2019-03-10T15:03:04.248Z,50.80
2019-03-10T15:05:32.515Z,50.20
2019-03-10T15:08:00.905Z,50.60
2019-03-10T15:10:29.237Z,51.00
2019-03-10T15:12:57.547Z,51.30
2019-03-10T15:15:25.826Z,51.80
2019-03-10T15:17:54.123Z,52.80
2019-03-10T15:20:22.400Z,53.70
2019-03-10T15:22:50.718Z,54.00
2019-03-10T15:25:24.961Z,54.70
2019-03-10T15:27:52.506Z,55.10
2019-03-10T15:30:23.141Z,54.20
2019-03-10T15:32:51.553Z,53.80
2019-03-10T15:35:19.793Z,54.10
2019-03-10T15:37:48.053Z,54.10
2019-03-10T15:40:17.070Z,53.70
2019-03-10T15:42:45.362Z,54.30
2019-03-10T15:45:16.954Z,54.30
2019-03-10T15:47:45.249Z,54.90
2019-03-10T15:50:18.838Z,55.70
2019-03-10T15:52:47.111Z,56.80
2019-03-10T15:55:15.757Z,56.80
2019-03-10T15:57:50.053Z,57.20
2019-03-10T16:00:19.701Z,57.60
2019-03-10T16:02:47.996Z,57.70
2019-03-10T16:05:16.226Z,58.40
2019-03-10T16:07:44.499Z,58.70
2019-03-10T16:10:13.797Z,58.80
2019-03-10T16:12:42.063Z,58.80
2019-03-10T16:15:21.528Z,58.90
2019-03-10T16:17:49.940Z,59.30
2019-03-10T16:20:18.241Z,59.50
2019-03-10T16:22:46.522Z,60.20
2019-03-10T16:25:16.845Z,60.80
2019-03-10T16:27:45.099Z,60.50
2019-03-10T16:30:27.253Z,60.90
2019-03-10T16:32:54.833Z,61.70
2019-03-10T16:35:23.094Z,62.60
2019-03-10T16:37:51.442Z,63.00
2019-03-10T16:40:20.616Z,63.60
2019-03-10T16:42:49.226Z,64.10
2019-03-10T16:45:22.288Z,63.90
2019-03-10T16:47:50.604Z,64.10
2019-03-10T16:50:24.011Z,64.00
2019-03-10T16:52:52.349Z,64.00
2019-03-10T16:55:20.611Z,64.30
2019-03-10T16:57:48.858Z,64.80
2019-03-10T17:00:18.828Z,64.60
2019-03-10T17:02:47.090Z,65.30
2019-03-10T17:05:16.562Z,65.80
2019-03-10T17:07:44.817Z,66.90
2019-03-10T17:10:21.123Z,67.40
2019-03-10T17:12:49.435Z,66.90
2019-03-10T17:15:19.789Z,66.80
2019-03-10T17:17:48.044Z,67.10
2019-03-10T17:20:17.207Z,67.40
2019-03-10T17:22:45.470Z,67.30
2019-03-10T17:25:14.779Z,67.20
2019-03-10T17:27:43.061Z,67.60
2019-03-10T17:30:19.444Z,68.10
2019-03-10T17:32:47.703Z,68.40
2019-03-10T17:35:16.790Z,69.10
2019-03-10T17:37:45.033Z,69.20
2019-03-10T17:40:20.537Z,67.50
2019-03-10T17:42:48.786Z,68.20
2019-03-10T17:45:18.456Z,67.00
2019-03-10T17:47:46.791Z,65.70
2019-03-10T17:50:16.515Z,65.20
2019-03-10T17:52:44.862Z,64.20
2019-03-10T17:55:18.304Z,63.90
2019-03-10T17:57:47.834Z,64.10
2019-03-10T18:00:18.722Z,63.60
2019-03-10T18:02:47.043Z,62.90
2019-03-10T18:05:15.337Z,62.80
2019-03-10T18:07:43.744Z,62.80
2019-03-10T18:10:13.757Z,62.50
2019-03-10T18:12:42.081Z,62.70
2019-03-10T18:15:11.660Z,63.10
2019-03-10T18:17:40.250Z,63.70
2019-03-10T18:20:11.925Z,64.30
2019-03-10T18:22:41.502Z,63.30
2019-03-10T18:25:11.228Z,63.10
2019-03-10T18:27:39.552Z,62.30
2019-03-10T18:30:14.011Z,61.70
2019-03-10T18:32:42.302Z,61.70
2019-03-10T18:35:10.582Z,61.60
2019-03-10T18:37:38.838Z,62.00
2019-03-10T18:40:10.666Z,61.40
2019-03-10T18:42:38.909Z,60.70
2019-03-10T18:45:10.450Z,61.30
2019-03-10T18:47:38.853Z,61.70
2019-03-10T18:50:10.231Z,61.20
2019-03-10T18:52:38.585Z,60.30
2019-03-10T18:55:09.390Z,59.80
2019-03-10T18:57:37.755Z,59.60
2019-03-10T19:00:21.279Z,59.60
2019-03-10T19:02:49.613Z,59.50
2019-03-10T19:05:17.932Z,59.80
2019-03-10T19:07:46.247Z,60.00
2019-03-10T19:10:14.739Z,60.70
2019-03-10T19:12:42.986Z,61.30
2019-03-10T19:15:16.477Z,61.90
2019-03-10T19:17:44.713Z,62.50
2019-03-10T19:20:14.144Z,62.90
2019-03-10T19:22:42.391Z,63.30
2019-03-10T19:25:12.077Z,63.70
2019-03-10T19:27:40.354Z,63.80
2019-03-10T19:30:14.901Z,64.10
2019-03-10T19:32:43.141Z,64.30
2019-03-10T19:35:11.901Z,64.30
2019-03-10T19:37:40.134Z,64.70
2019-03-10T19:40:13.186Z,66.80
2019-03-10T19:42:41.443Z,69.30
2019-03-10T19:45:15.168Z,76.30
2019-03-10T19:47:43.586Z,83.00
2019-03-10T19:50:27.607Z,86.30
2019-03-10T19:52:56.213Z,88.40
2019-03-10T19:55:24.483Z,89.30
2019-03-10T19:57:52.889Z,89.30
2019-03-10T20:00:21.565Z,89.10
2019-03-10T20:02:49.802Z,89.00
2019-03-10T20:05:18.102Z,89.40
2019-03-10T20:07:46.362Z,89.40
2019-03-10T20:10:22.729Z,90.20
2019-03-10T20:12:51.333Z,88.70
2019-03-10T20:15:21.656Z,89.00
2019-03-10T20:17:49.871Z,89.30
2019-03-10T20:20:23.083Z,88.70
2019-03-10T20:22:51.309Z,88.70
2019-03-10T20:25:19.620Z,90.00
2019-03-10T20:27:47.834Z,89.10
2019-03-10T20:30:21.199Z,88.60
2019-03-10T20:32:49.445Z,87.90
2019-03-10T20:35:17.747Z,85.40
2019-03-10T20:37:45.970Z,89.10
2019-03-10T20:40:16.064Z,90.90
2019-03-10T20:42:44.289Z,91.50
2019-03-10T20:45:12.909Z,92.10
2019-03-10T20:47:41.156Z,92.10
2019-03-10T20:50:16.959Z,92.80
2019-03-10T20:52:45.177Z,92.60
2019-03-10T20:55:14.037Z,93.00
2019-03-10T20:57:42.254Z,92.90
2019-03-10T21:00:19.378Z,93.20
2019-03-10T21:02:47.577Z,93.10
2019-03-10T21:05:15.812Z,93.40
2019-03-10T21:07:44.074Z,92.90
2019-03-10T21:10:20.182Z,92.80
2019-03-10T21:12:48.435Z,92.80
2019-03-10T21:15:20.511Z,93.00
2019-03-10T21:17:48.737Z,92.50
2019-03-10T21:20:19.291Z,92.40
2019-03-10T21:22:47.754Z,92.40
2019-03-10T21:25:24.895Z,92.50
2019-03-10T21:27:53.198Z,92.70
2019-03-10T21:30:25.837Z,92.70
2019-03-10T21:32:54.258Z,92.80
2019-03-10T21:35:22.582Z,92.90
2019-03-10T21:37:50.829Z,92.90
2019-03-10T21:40:34.226Z,92.90
2019-03-10T21:43:02.476Z,92.70
2019-03-10T21:45:30.783Z,92.80
2019-03-10T21:47:59.000Z,92.90
2019-03-10T21:50:27.270Z,92.40
2019-03-10T21:52:55.489Z,92.40
2019-03-10T21:55:23.777Z,92.50
2019-03-10T21:57:52.213Z,92.70
2019-03-10T22:00:20.624Z,92.10
2019-03-10T22:02:48.882Z,92.10
2019-03-10T22:05:17.587Z,92.30
2019-03-10T22:07:45.853Z,91.80
2019-03-10T22:10:26.410Z,91.40
2019-03-10T22:12:47.915Z,91.10
2019-03-10T22:15:19.949Z,90.60
2019-03-10T22:17:48.168Z,90.20
2019-03-10T22:20:17.014Z,88.90
2019-03-10T22:22:49.369Z,89.00
2019-03-10T22:25:15.245Z,87.80
2019-03-10T22:27:45.827Z,86.70
2019-03-10T22:30:20.605Z,86.10
2019-03-10T22:32:48.842Z,85.00
2019-03-10T22:35:17.126Z,83.90
2019-03-10T22:37:45.392Z,83.60
2019-03-10T22:40:19.622Z,83.10
2019-03-10T22:42:47.876Z,83.70
2019-03-10T22:45:18.082Z,81.60
2019-03-10T22:47:46.314Z,81.60
2019-03-10T22:50:15.203Z,81.70
2019-03-10T22:52:43.562Z,81.20
2019-03-10T22:55:12.517Z,81.20
2019-03-10T22:57:40.743Z,80.80
2019-03-10T23:00:14.362Z,80.50
2019-03-10T23:02:43.298Z,80.20
2019-03-10T23:05:11.560Z,80.30
2019-03-10T23:07:39.812Z,79.70
2019-03-10T23:10:10.965Z,79.60
2019-03-10T23:12:39.194Z,79.40
2019-03-10T23:15:09.655Z,79.20
2019-03-10T23:17:37.896Z,79.00
2019-03-10T23:20:08.947Z,79.40
2019-03-10T23:22:37.267Z,78.90
2019-03-10T23:25:06.317Z,77.80
2019-03-10T23:27:34.562Z,77.60
2019-03-10T23:30:02.783Z,77.20
2019-03-10T23:32:31.034Z,77.90
2019-03-10T23:34:59.487Z,76.80
2019-03-10T23:37:27.719Z,76.20
2019-03-10T23:39:55.929Z,75.90
2019-03-10T23:42:24.180Z,75.60
2019-03-10T23:44:52.399Z,75.90
2019-03-10T23:47:20.649Z,75.30
2019-03-10T23:49:48.898Z,76.00
2019-03-10T23:52:17.131Z,75.80
2019-03-10T23:54:45.357Z,75.60
2019-03-10T23:57:13.596Z,75.20
2019-03-10T23:59:41.834Z,74.80
